Time;durP1;ratioP1;P1;durP2;ratioP2;P2;SDS_P1;SDS_P2;PMS_P1;PMS_P2;Temp;Humidity;BMP_temperature;BMP_pressure;BME280_temperature;BME280_humidity;BME280_pressure;Samples;Min_cycle;Max_cycle;Signal;HPM_P1;HPM_P2
2024/01/09 00:01:44;;;;;;;4.23;2.60;;;-1.70;99.90;;;;;;4999958;28;20179;-63
2024/01/09 00:04:11;;;;;;;4.30;2.50;;;-1.80;99.90;;;;;;4990896;28;20211;-62
2024/01/09 00:06:39;;;;;;;4.93;2.60;;;-1.80;99.90;;;;;;4976429;28;20217;-64
2024/01/09 00:09:05;;;;;;;3.73;2.67;;;-1.80;99.90;;;;;;4988823;28;20176;-64
2024/01/09 00:11:30;;;;;;;3.50;2.60;;;-1.80;99.90;;;;;;4991951;28;20280;-64
2024/01/09 00:13:56;;;;;;;3.87;2.50;;;-1.80;99.90;;;;;;4976599;28;20236;-64
2024/01/09 00:16:25;;;;;;;3.23;2.20;;;-1.90;99.90;;;;;;4988122;28;20211;-64
2024/01/09 00:18:53;;;;;;;3.40;2.30;;;-1.90;99.90;;;;;;4992231;28;20260;-64
2024/01/09 00:21:25;;;;;;;3.43;2.50;;;-1.90;99.90;;;;;;4989926;28;20180;-63
2024/01/09 00:23:50;;;;;;;3.10;2.13;;;-1.90;99.90;;;;;;5078100;27;20172;-64
2024/01/09 00:26:17;;;;;;;3.47;2.53;;;-1.90;99.90;;;;;;5080521;28;20383;-67
2024/01/09 00:28:42;;;;;;;3.20;2.33;;;-1.90;99.90;;;;;;4979999;28;20218;-64
2024/01/09 00:31:08;;;;;;;4.63;2.60;;;-2.00;99.90;;;;;;4981851;28;20208;-63
2024/01/09 00:33:34;;;;;;;3.07;2.23;;;-1.90;99.90;;;;;;4995125;28;20287;-62
2024/01/09 00:36:03;;;;;;;4.27;2.70;;;-2.00;99.90;;;;;;4996077;28;20234;-64
2024/01/09 00:38:29;;;;;;;3.80;2.50;;;-2.00;99.90;;;;;;5083666;28;20180;-63
2024/01/09 00:40:54;;;;;;;3.87;2.50;;;-2.00;99.90;;;;;;4986813;28;20189;-62
2024/01/09 00:43:20;;;;;;;3.73;2.20;;;-2.00;99.90;;;;;;5004511;28;20187;-63
2024/01/09 00:45:46;;;;;;;4.03;2.37;;;-2.00;99.90;;;;;;4990178;28;20194;-63
2024/01/09 00:48:11;;;;;;;3.63;2.30;;;-2.00;99.90;;;;;;5084129;28;20278;-64
2024/01/09 00:50:39;;;;;;;4.13;2.40;;;-2.00;99.90;;;;;;5011043;28;20180;-63
2024/01/09 00:53:07;;;;;;;3.40;2.20;;;-2.00;99.90;;;;;;4990546;28;20223;-64
2024/01/09 00:55:38;;;;;;;2.90;2.00;;;-2.10;99.90;;;;;;5029717;28;20211;-63
2024/01/09 00:58:05;;;;;;;3.13;2.13;;;-2.10;99.90;;;;;;5084015;28;20283;-63
2024/01/09 01:00:31;;;;;;;3.00;2.20;;;-2.10;99.90;;;;;;4986733;28;20210;-64
2024/01/09 01:02:57;;;;;;;3.27;2.27;;;-2.10;99.90;;;;;;5078834;28;20183;-63
2024/01/09 01:05:23;;;;;;;3.23;2.23;;;-2.10;99.90;;;;;;4983257;28;20188;-63
2024/01/09 01:07:48;;;;;;;3.57;2.30;;;-2.10;99.90;;;;;;4999519;28;20210;-64
2024/01/09 01:10:14;;;;;;;3.10;2.30;;;-2.10;99.90;;;;;;5082581;28;20185;-63
2024/01/09 01:12:40;;;;;;;3.33;2.20;;;-2.10;99.90;;;;;;4988935;28;20220;-64
2024/01/09 01:15:06;;;;;;;3.97;2.50;;;-2.10;99.90;;;;;;4992945;28;20306;-64
2024/01/09 01:17:34;;;;;;;2.53;2.00;;;-2.20;99.90;;;;;;4987538;28;20195;-63
2024/01/09 01:20:06;;;;;;;3.33;2.30;;;-2.20;99.90;;;;;;5088911;28;20545;-66
2024/01/09 01:22:31;;;;;;;3.40;2.40;;;-2.20;99.90;;;;;;4987463;28;20290;-64
2024/01/09 01:24:57;;;;;;;3.37;2.17;;;-2.20;99.90;;;;;;4980965;28;20272;-63
2024/01/09 01:27:25;;;;;;;3.00;2.00;;;-2.20;99.90;;;;;;5049463;28;20191;-64
2024/01/09 01:29:51;;;;;;;3.87;2.20;;;-2.20;99.90;;;;;;4984093;28;20189;-64
2024/01/09 01:32:19;;;;;;;2.93;2.30;;;-2.20;99.90;;;;;;4978014;28;20188;-63
2024/01/09 01:34:45;;;;;;;4.17;2.40;;;-2.20;99.90;;;;;;4994221;28;20357;-63
2024/01/09 01:37:10;;;;;;;3.17;2.30;;;-2.20;99.90;;;;;;4987239;28;20245;-64
2024/01/09 01:39:36;;;;;;;4.87;2.60;;;-2.30;99.90;;;;;;5015077;28;20172;-64
2024/01/09 01:42:04;;;;;;;3.23;2.23;;;-2.30;99.90;;;;;;5071007;28;20207;-64
2024/01/09 01:44:30;;;;;;;4.00;2.50;;;-2.30;99.90;;;;;;4976980;28;20244;-62
2024/01/09 01:46:58;;;;;;;3.37;2.20;;;-2.30;99.90;;;;;;5080889;28;20302;-61
2024/01/09 01:49:25;;;;;;;4.13;2.27;;;-2.30;99.90;;;;;;5000997;28;20203;-62
2024/01/09 01:51:51;;;;;;;3.37;2.20;;;-2.30;99.90;;;;;;4991240;28;20184;-63
2024/01/09 01:54:17;;;;;;;3.10;2.40;;;-2.30;99.90;;;;;;5086718;28;20211;-63
2024/01/09 01:56:48;;;;;;;3.27;2.40;;;-2.30;99.90;;;;;;4991073;28;20226;-63
2024/01/09 01:59:16;;;;;;;3.97;2.30;;;-2.30;99.90;;;;;;5085859;28;20180;-63
2024/01/09 02:01:48;;;;;;;4.57;2.60;;;-2.30;99.90;;;;;;4990744;28;20180;-63
2024/01/09 02:04:15;;;;;;;3.27;1.93;;;-2.30;99.90;;;;;;5084486;28;20213;-64
2024/01/09 02:06:41;;;;;;;2.80;1.80;;;-2.30;99.90;;;;;;5085199;28;20188;-64
2024/01/09 02:09:09;;;;;;;3.17;1.90;;;-2.40;99.90;;;;;;5082283;28;20198;-64
2024/01/09 02:11:35;;;;;;;3.13;2.00;;;-2.40;99.90;;;;;;5096692;28;20245;-63
2024/01/09 02:14:03;;;;;;;2.67;2.03;;;-2.40;99.90;;;;;;5017704;28;20248;-64
2024/01/09 02:16:31;;;;;;;3.10;1.80;;;-2.50;99.90;;;;;;4995104;28;20194;-64
2024/01/09 02:18:56;;;;;;;3.10;2.03;;;-2.50;99.90;;;;;;5087404;28;20199;-63
2024/01/09 02:21:22;;;;;;;3.77;2.17;;;-2.50;99.90;;;;;;5006976;28;20184;-63
2024/01/09 02:23:50;;;;;;;4.10;2.00;;;-2.60;99.90;;;;;;5087192;28;20191;-64
2024/01/09 02:26:20;;;;;;;2.43;1.73;;;-2.60;99.90;;;;;;4988597;28;20298;-64
2024/01/09 02:28:56;;;;;;;3.10;1.70;;;-2.60;99.90;;;;;;5098133;28;20278;-60
2024/01/09 02:31:22;;;;;;;3.20;2.00;;;-2.70;99.90;;;;;;5090046;28;20235;-62
2024/01/09 02:33:47;;;;;;;3.17;2.00;;;-2.60;99.90;;;;;;4989671;28;20223;-62
2024/01/09 02:36:15;;;;;;;3.57;2.50;;;-2.70;99.90;;;;;;4998531;28;20214;-60
2024/01/09 02:38:43;;;;;;;3.80;2.30;;;-2.80;99.90;;;;;;5084214;28;20270;-63
2024/01/09 02:41:08;;;;;;;2.70;1.90;;;-2.80;99.90;;;;;;5083613;28;20187;-63
2024/01/09 02:43:34;;;;;;;2.80;1.80;;;-2.80;99.90;;;;;;4979099;28;20176;-64
2024/01/09 02:46:02;;;;;;;3.40;2.30;;;-2.80;99.90;;;;;;4996124;28;20211;-63
2024/01/09 02:48:27;;;;;;;2.87;2.10;;;-2.80;99.90;;;;;;4985508;28;20179;-63
2024/01/09 02:50:58;;;;;;;4.80;2.33;;;-2.80;99.90;;;;;;4989018;28;20197;-61
2024/01/09 02:53:23;;;;;;;2.70;1.90;;;-2.90;99.90;;;;;;5004105;28;20227;-63
2024/01/09 02:55:49;;;;;;;3.50;2.27;;;-2.90;99.90;;;;;;5016615;28;20252;-63
2024/01/09 02:58:14;;;;;;;3.60;2.10;;;-2.90;99.90;;;;;;5003397;28;20177;-63
2024/01/09 03:00:40;;;;;;;2.67;1.80;;;-2.90;99.90;;;;;;4989695;28;20211;-63
2024/01/09 03:03:05;;;;;;;2.90;2.13;;;-2.90;99.90;;;;;;4991823;28;20179;-63
2024/01/09 03:05:31;;;;;;;3.33;2.07;;;-2.90;99.90;;;;;;5084953;28;20188;-63
2024/01/09 03:07:59;;;;;;;3.60;1.93;;;-2.90;99.90;;;;;;4994893;28;20208;-61
2024/01/09 03:10:27;;;;;;;3.27;2.00;;;-3.00;99.90;;;;;;5004733;28;20210;-62
2024/01/09 03:12:55;;;;;;;3.27;2.40;;;-3.00;99.90;;;;;;5035461;28;20227;-65
2024/01/09 03:15:20;;;;;;;2.80;1.87;;;-3.00;99.90;;;;;;5095220;28;20264;-63
2024/01/09 03:17:46;;;;;;;3.33;2.03;;;-3.00;99.90;;;;;;5011755;28;20195;-63
2024/01/09 03:20:14;;;;;;;2.87;1.90;;;-3.00;99.90;;;;;;4999018;28;20185;-63
2024/01/09 03:22:39;;;;;;;3.50;2.23;;;-3.10;99.90;;;;;;5082874;27;20215;-62
2024/01/09 03:25:05;;;;;;;3.53;2.17;;;-3.10;99.90;;;;;;4979399;28;20195;-63
2024/01/09 03:27:33;;;;;;;4.20;2.30;;;-3.10;99.90;;;;;;4988590;28;20192;-63
2024/01/09 03:29:58;;;;;;;3.50;2.10;;;-3.10;99.90;;;;;;4983807;28;20183;-64
2024/01/09 03:32:24;;;;;;;3.83;2.17;;;-3.10;99.90;;;;;;4986717;28;20213;-63
2024/01/09 03:34:50;;;;;;;3.33;2.30;;;-3.10;99.90;;;;;;5090201;27;20204;-63
2024/01/09 03:37:15;;;;;;;2.90;2.10;;;-3.10;99.90;;;;;;4988196;28;20195;-63
2024/01/09 03:39:45;;;;;;;2.73;1.87;;;-3.20;99.90;;;;;;4997951;28;20207;-63
2024/01/09 03:42:13;;;;;;;2.87;1.90;;;-3.20;99.90;;;;;;4995608;28;20180;-63
2024/01/09 03:44:38;;;;;;;3.00;1.57;;;-3.20;99.90;;;;;;4981322;28;20183;-63
2024/01/09 03:47:04;;;;;;;3.03;2.20;;;-3.20;99.90;;;;;;5089601;28;20180;-63
2024/01/09 03:49:30;;;;;;;2.93;1.97;;;-3.20;99.90;;;;;;4990260;28;20207;-64
2024/01/09 03:51:57;;;;;;;3.03;2.13;;;-3.30;99.90;;;;;;5092173;27;20214;-63
2024/01/09 03:54:23;;;;;;;3.10;1.87;;;-3.30;99.90;;;;;;4990467;28;20235;-62
2024/01/09 03:56:50;;;;;;;3.33;2.23;;;-3.30;99.90;;;;;;5086801;27;20227;-64
2024/01/09 03:59:18;;;;;;;2.90;2.00;;;-3.30;99.90;;;;;;5085093;28;20240;-64
2024/01/09 04:01:44;;;;;;;3.17;2.20;;;-3.30;99.90;;;;;;5084969;28;20188;-62
2024/01/09 04:04:09;;;;;;;3.93;2.33;;;-3.40;99.90;;;;;;5078316;28;20277;-63
2024/01/09 04:06:43;;;;;;;2.87;1.90;;;-3.40;99.90;;;;;;4987874;28;20222;-63
2024/01/09 04:09:10;;;;;;;3.47;2.20;;;-3.40;99.90;;;;;;5082762;27;20190;-63
2024/01/09 04:11:44;;;;;;;2.97;2.00;;;-3.40;99.90;;;;;;4980679;28;20215;-63
2024/01/09 04:14:12;;;;;;;4.33;2.50;;;-3.50;99.90;;;;;;4991372;28;20233;-63
2024/01/09 04:16:38;;;;;;;3.50;2.43;;;-3.40;99.90;;;;;;4987884;28;20187;-63
2024/01/09 04:19:04;;;;;;;3.60;2.50;;;-3.40;99.90;;;;;;4998162;28;20183;-64
2024/01/09 04:21:32;;;;;;;4.87;2.87;;;-3.50;99.90;;;;;;4992245;28;20190;-64
2024/01/09 04:23:57;;;;;;;3.87;2.50;;;-3.50;99.90;;;;;;4983706;28;20184;-63
2024/01/09 04:26:25;;;;;;;5.20;2.90;;;-3.50;99.90;;;;;;4987185;28;20194;-63
2024/01/09 04:28:51;;;;;;;6.23;2.93;;;-3.50;99.90;;;;;;4978864;28;20278;-61
2024/01/09 04:31:16;;;;;;;4.30;2.77;;;-3.50;99.90;;;;;;5074840;28;20274;-63
2024/01/09 04:33:44;;;;;;;4.50;3.10;;;-3.50;99.90;;;;;;4975036;28;20191;-64
2024/01/09 04:36:15;;;;;;;6.83;4.07;;;-3.50;99.90;;;;;;4973114;28;20176;-63
2024/01/09 04:38:41;;;;;;;5.63;3.13;;;-3.50;99.90;;;;;;4983647;28;20195;-63
2024/01/09 04:41:07;;;;;;;4.70;3.10;;;-3.40;99.90;;;;;;5090283;27;20331;-64
2024/01/09 04:43:32;;;;;;;5.93;2.90;;;-3.40;99.90;;;;;;4997702;28;20187;-64
2024/01/09 04:46:00;;;;;;;5.20;3.03;;;-3.40;99.90;;;;;;5082729;28;20557;-64
2024/01/09 04:48:28;;;;;;;5.87;3.20;;;-3.30;99.90;;;;;;5086786;28;20194;-64
2024/01/09 04:50:56;;;;;;;4.87;2.60;;;-3.30;99.90;;;;;;4991675;28;20186;-64
2024/01/09 04:53:21;;;;;;;4.20;2.70;;;-3.30;99.90;;;;;;5086984;28;20333;-64
2024/01/09 04:55:49;;;;;;;3.87;2.60;;;-3.30;99.90;;;;;;5086492;28;20207;-63
2024/01/09 04:58:15;;;;;;;4.27;2.57;;;-3.20;99.90;;;;;;4979435;28;20180;-63
2024/01/09 05:00:42;;;;;;;3.27;2.30;;;-3.20;99.90;;;;;;5093651;28;20186;-64
2024/01/09 05:03:08;;;;;;;4.30;2.63;;;-3.20;99.90;;;;;;5083320;28;20221;-63
2024/01/09 05:05:34;;;;;;;4.37;2.87;;;-3.20;99.90;;;;;;4986660;28;20203;-64
2024/01/09 05:07:59;;;;;;;3.23;2.20;;;-3.20;99.90;;;;;;4987824;28;20183;-64
2024/01/09 05:10:25;;;;;;;3.33;2.40;;;-3.10;99.90;;;;;;4993220;28;20183;-62
2024/01/09 05:12:53;;;;;;;4.13;2.47;;;-3.10;99.90;;;;;;5002670;28;20195;-63
2024/01/09 05:15:21;;;;;;;4.23;2.20;;;-3.10;99.90;;;;;;5090860;27;20207;-64
2024/01/09 05:17:47;;;;;;;4.00;2.60;;;-3.00;99.90;;;;;;5086100;28;20221;-64
2024/01/09 05:20:14;;;;;;;3.77;2.27;;;-3.00;99.90;;;;;;5001941;28;20321;-62
2024/01/09 05:22:42;;;;;;;3.60;2.50;;;-3.00;99.90;;;;;;4996985;28;20180;-63
2024/01/09 05:25:08;;;;;;;4.10;2.63;;;-3.00;99.90;;;;;;5001842;28;20204;-63
2024/01/09 05:27:34;;;;;;;3.23;2.10;;;-3.00;99.90;;;;;;5087807;27;20198;-65
2024/01/09 05:30:03;;;;;;;7.67;4.17;;;-2.90;99.90;;;;;;5088824;27;20196;-63
2024/01/09 05:32:30;;;;;;;6.13;3.40;;;-3.00;99.90;;;;;;4993653;28;20183;-63
2024/01/09 05:34:56;;;;;;;6.07;3.33;;;-2.90;99.90;;;;;;5018181;28;20215;-64
2024/01/09 05:37:24;;;;;;;4.47;2.80;;;-2.90;99.90;;;;;;5005890;28;20210;-63
2024/01/09 05:39:52;;;;;;;5.23;2.70;;;-2.90;99.90;;;;;;5007150;28;20235;-64
2024/01/09 05:42:17;;;;;;;4.33;2.47;;;-2.90;99.90;;;;;;5084587;27;20176;-64
2024/01/09 05:44:43;;;;;;;3.40;2.30;;;-2.90;99.90;;;;;;4984021;28;20184;-64
2024/01/09 05:47:09;;;;;;;4.03;2.37;;;-2.90;99.90;;;;;;4992465;28;20224;-64
2024/01/09 05:49:36;;;;;;;3.10;2.37;;;-2.90;99.90;;;;;;4986058;28;20286;-64
2024/01/09 05:52:02;;;;;;;3.27;2.13;;;-2.90;99.90;;;;;;4989412;28;20184;-64
2024/01/09 05:54:28;;;;;;;4.70;2.57;;;-2.90;99.90;;;;;;4981499;28;20256;-65
2024/01/09 05:56:53;;;;;;;3.03;2.03;;;-2.90;99.90;;;;;;5094056;27;20198;-64
2024/01/09 05:59:19;;;;;;;2.57;1.90;;;-2.90;99.90;;;;;;5004151;28;20249;-64
2024/01/09 06:01:45;;;;;;;2.70;1.97;;;-3.00;99.90;;;;;;4984968;28;20200;-65
2024/01/09 06:04:15;;;;;;;2.60;1.70;;;-3.00;99.90;;;;;;4996553;28;20180;-63
2024/01/09 06:06:45;;;;;;;3.50;2.17;;;-3.00;99.90;;;;;;5078195;28;20180;-63
2024/01/09 06:09:11;;;;;;;2.80;2.10;;;-3.00;99.90;;;;;;4986049;28;20211;-63
2024/01/09 06:11:39;;;;;;;2.83;2.20;;;-3.10;99.90;;;;;;4985660;28;20253;-65
2024/01/09 06:14:05;;;;;;;2.40;1.70;;;-3.20;99.90;;;;;;5107284;27;20225;-63
2024/01/09 06:16:30;;;;;;;3.17;2.23;;;-3.20;99.90;;;;;;4996455;28;20179;-63
2024/01/09 06:18:56;;;;;;;2.17;1.80;;;-3.20;99.90;;;;;;4997293;28;20252;-63
2024/01/09 06:21:21;;;;;;;2.93;1.93;;;-3.30;99.90;;;;;;4987568;28;20206;-64
2024/01/09 06:23:48;;;;;;;3.60;2.20;;;-3.30;99.90;;;;;;4983101;28;20325;-63
2024/01/09 06:26:16;;;;;;;2.90;2.00;;;-3.40;99.90;;;;;;4994098;28;20199;-63
2024/01/09 06:28:44;;;;;;;2.77;2.00;;;-3.40;99.90;;;;;;4990797;28;20268;-63
2024/01/09 06:31:10;;;;;;;2.90;1.93;;;-3.30;99.90;;;;;;5089530;27;20196;-62
2024/01/09 06:33:38;;;;;;;3.23;2.20;;;-3.50;99.90;;;;;;4987425;28;20313;-63
2024/01/09 06:36:04;;;;;;;3.53;2.10;;;-3.50;99.90;;;;;;4990594;28;20274;-63
2024/01/09 06:38:32;;;;;;;2.93;1.90;;;-3.50;99.90;;;;;;5091779;27;20234;-63
2024/01/09 06:40:58;;;;;;;3.20;1.97;;;-3.50;99.90;;;;;;4981978;28;20211;-63
2024/01/09 06:43:24;;;;;;;2.90;1.90;;;-3.60;99.90;;;;;;4983305;28;20191;-64
2024/01/09 06:45:50;;;;;;;4.20;1.90;;;-3.60;99.90;;;;;;4992061;28;20207;-64
2024/01/09 06:48:18;;;;;;;3.53;2.00;;;-3.60;99.90;;;;;;5082921;27;20198;-63
2024/01/09 06:50:43;;;;;;;3.87;2.30;;;-3.60;99.90;;;;;;5000174;28;20218;-64
2024/01/09 06:53:09;;;;;;;3.27;1.80;;;-3.70;99.90;;;;;;5093765;27;20183;-62
2024/01/09 06:55:35;;;;;;;2.57;1.90;;;-3.70;99.90;;;;;;5086572;28;20245;-64
2024/01/09 06:58:04;;;;;;;3.00;1.80;;;-3.70;99.90;;;;;;5084864;28;20230;-64
2024/01/09 07:00:30;;;;;;;3.63;2.50;;;-3.70;99.90;;;;;;4986570;28;20192;-64
2024/01/09 07:02:56;;;;;;;3.07;2.10;;;-3.70;99.90;;;;;;4978160;28;20208;-64
2024/01/09 07:05:22;;;;;;;3.10;2.00;;;-3.80;99.90;;;;;;4977203;28;20266;-63
2024/01/09 07:07:50;;;;;;;3.60;2.20;;;-3.80;99.90;;;;;;4993195;28;20255;-64
2024/01/09 07:10:21;;;;;;;3.33;2.10;;;-3.80;99.90;;;;;;4992735;28;20175;-64
2024/01/09 07:12:46;;;;;;;4.77;2.33;;;-3.80;99.90;;;;;;5009188;28;20176;-63
2024/01/09 07:15:14;;;;;;;3.30;2.10;;;-3.80;99.90;;;;;;4993258;28;20219;-63
2024/01/09 07:17:40;;;;;;;3.20;2.20;;;-3.80;99.90;;;;;;4988500;28;20192;-64
2024/01/09 07:20:09;;;;;;;3.60;2.37;;;-3.80;99.90;;;;;;4977104;28;20184;-64
2024/01/09 07:22:36;;;;;;;3.33;2.00;;;-3.80;99.90;;;;;;5097342;28;20223;-63
2024/01/09 07:25:07;;;;;;;3.27;2.20;;;-3.80;99.90;;;;;;5112622;28;20180;-64
2024/01/09 07:27:34;;;;;;;3.77;2.23;;;-3.80;99.90;;;;;;5061199;28;20196;-65
2024/01/09 07:30:00;;;;;;;3.07;2.23;;;-3.80;99.90;;;;;;4993271;28;20206;-67
2024/01/09 07:32:28;;;;;;;3.27;2.27;;;-3.70;99.90;;;;;;4993314;28;20215;-64
2024/01/09 07:34:54;;;;;;;3.20;2.23;;;-3.70;99.90;;;;;;4984921;28;20251;-65
2024/01/09 07:37:20;;;;;;;2.93;2.20;;;-3.70;99.90;;;;;;4988579;28;20271;-68
2024/01/09 07:39:45;;;;;;;3.97;2.30;;;-3.70;99.90;;;;;;4992797;28;20239;-68
2024/01/09 07:42:13;;;;;;;4.23;2.40;;;-3.60;99.90;;;;;;4992244;28;20247;-66
2024/01/09 07:44:39;;;;;;;3.40;2.00;;;-3.60;99.90;;;;;;4992625;28;20203;-67
2024/01/09 07:47:07;;;;;;;3.97;2.10;;;-3.60;99.90;;;;;;4987691;28;20202;-70
2024/01/09 07:49:33;;;;;;;5.20;2.90;;;-3.60;99.90;;;;;;5074656;28;20172;-67
2024/01/09 07:51:59;;;;;;;4.43;2.80;;;-3.60;99.90;;;;;;4980285;28;20179;-67
2024/01/09 07:54:25;;;;;;;4.23;2.67;;;-3.60;99.90;;;;;;4992260;28;20273;-68
2024/01/09 07:56:53;;;;;;;4.90;3.13;;;-3.60;99.90;;;;;;4992583;28;20249;-68
2024/01/09 07:59:18;;;;;;;3.73;2.60;;;-3.60;99.90;;;;;;4976280;28;20172;-68
2024/01/09 08:01:44;;;;;;;4.67;2.60;;;-3.70;99.90;;;;;;4976384;28;20256;-68
2024/01/09 08:04:10;;;;;;;6.87;4.20;;;-3.70;99.90;;;;;;4990315;28;20172;-68
2024/01/09 08:06:38;;;;;;;8.20;3.80;;;-3.70;99.90;;;;;;5004143;28;20179;-69
2024/01/09 08:09:06;;;;;;;5.20;3.20;;;-3.70;99.90;;;;;;4988274;28;20210;-67
2024/01/09 08:11:31;;;;;;;4.93;3.07;;;-3.70;99.90;;;;;;5008165;28;20187;-68
2024/01/09 08:13:59;;;;;;;4.37;2.80;;;-3.80;99.90;;;;;;5094487;28;20191;-68
2024/01/09 08:16:32;;;;;;;5.10;3.10;;;-3.80;99.90;;;;;;5077378;28;20184;-68
2024/01/09 08:18:57;;;;;;;5.20;3.07;;;-3.90;99.90;;;;;;4972490;28;20164;-68
2024/01/09 08:21:28;;;;;;;3.73;2.83;;;-3.90;99.90;;;;;;5015640;28;20212;-67
2024/01/09 08:23:56;;;;;;;4.17;2.80;;;-3.90;99.90;;;;;;5042140;28;20179;-68
2024/01/09 08:26:22;;;;;;;4.40;2.70;;;-3.90;99.90;;;;;;5094754;28;20228;-67
2024/01/09 08:28:48;;;;;;;4.23;2.73;;;-3.90;99.90;;;;;;4991911;28;20179;-68
2024/01/09 08:31:15;;;;;;;5.77;3.13;;;-3.90;99.90;;;;;;4992251;28;20190;-68
2024/01/09 08:33:41;;;;;;;3.60;2.60;;;-3.90;99.90;;;;;;4991875;28;20214;-68
2024/01/09 08:36:07;;;;;;;3.80;2.83;;;-3.90;99.90;;;;;;4991901;28;20230;-67
2024/01/09 08:38:32;;;;;;;4.13;2.70;;;-3.90;99.90;;;;;;4992533;28;20174;-67
2024/01/09 08:40:58;;;;;;;4.80;3.30;;;-3.90;99.90;;;;;;4991735;28;20171;-67
2024/01/09 08:43:28;;;;;;;4.40;2.90;;;-3.90;99.90;;;;;;4991983;28;20187;-68
2024/01/09 08:45:54;;;;;;;4.57;2.67;;;-3.90;99.90;;;;;;4993009;28;20176;-67
2024/01/09 08:48:22;;;;;;;3.80;2.73;;;-3.90;99.90;;;;;;4991516;28;20204;-68
2024/01/09 08:50:48;;;;;;;3.30;2.50;;;-3.90;99.90;;;;;;4991453;28;20175;-68
2024/01/09 08:53:14;;;;;;;4.90;2.93;;;-3.90;99.90;;;;;;4991969;28;20186;-67
2024/01/09 08:55:42;;;;;;;4.50;2.67;;;-3.80;99.90;;;;;;4991012;28;20207;-68
2024/01/09 08:58:10;;;;;;;3.77;2.70;;;-3.80;99.90;;;;;;4986525;28;20176;-67
2024/01/09 09:00:38;;;;;;;4.07;2.63;;;-3.80;99.90;;;;;;4991630;28;20171;-68
2024/01/09 09:03:06;;;;;;;3.87;2.50;;;-3.80;99.90;;;;;;4991497;28;20207;-68
2024/01/09 09:05:34;;;;;;;4.13;2.73;;;-3.70;99.90;;;;;;5078957;28;20167;-67
2024/01/09 09:08:00;;;;;;;4.17;2.50;;;-3.70;99.90;;;;;;4971923;28;20209;-68
2024/01/09 09:10:26;;;;;;;3.50;2.43;;;-3.60;99.90;;;;;;4989655;28;20277;-68
2024/01/09 09:12:53;;;;;;;5.07;2.60;;;-3.40;99.90;;;;;;4992121;28;20280;-68
2024/01/09 09:15:20;;;;;;;3.83;2.53;;;-3.00;99.90;;;;;;5076490;28;20247;-68
2024/01/09 09:17:48;;;;;;;3.97;2.60;;;-2.70;99.90;;;;;;4982459;28;20194;-67
2024/01/09 09:20:14;;;;;;;4.07;2.50;;;-2.30;99.90;;;;;;4991954;28;20172;-68
2024/01/09 09:22:42;;;;;;;4.40;2.63;;;-2.00;99.90;;;;;;5060958;28;20229;-68
2024/01/09 09:25:08;;;;;;;4.17;3.03;;;-1.90;99.90;;;;;;5094739;28;20157;-67
2024/01/09 09:27:34;;;;;;;3.83;2.80;;;-1.70;99.90;;;;;;5051573;28;20179;-68
2024/01/09 09:30:02;;;;;;;4.10;2.60;;;-1.70;99.90;;;;;;4991128;28;20211;-67
2024/01/09 09:32:28;;;;;;;5.33;2.70;;;-1.50;99.90;;;;;;5086635;28;20213;-68
2024/01/09 09:34:53;;;;;;;4.23;2.80;;;-1.40;99.90;;;;;;4978037;28;20207;-69
2024/01/09 09:37:19;;;;;;;4.87;2.70;;;-1.20;99.90;;;;;;4990601;28;20199;-68
2024/01/09 09:39:45;;;;;;;4.17;3.00;;;-1.00;99.90;;;;;;4991322;28;20180;-69
2024/01/09 09:42:13;;;;;;;3.83;3.03;;;-0.80;99.90;;;;;;4991143;28;20192;-67
2024/01/09 09:44:39;;;;;;;3.80;2.97;;;-0.60;99.90;;;;;;4990868;28;20199;-68
2024/01/09 09:47:06;;;;;;;4.87;3.33;;;-0.50;99.90;;;;;;4991179;28;20190;-67
2024/01/09 09:49:35;;;;;;;4.57;3.17;;;-0.30;99.90;;;;;;4991688;28;20245;-67
2024/01/09 09:52:08;;;;;;;4.50;3.13;;;-0.10;99.90;;;;;;5092849;28;20309;-67
2024/01/09 09:54:37;;;;;;;3.40;2.60;;;0.00;99.90;;;;;;4991049;28;20206;-67
2024/01/09 09:57:05;;;;;;;3.80;3.00;;;0.20;99.90;;;;;;5093111;28;20191;-67
2024/01/09 09:59:31;;;;;;;4.00;2.97;;;0.40;99.90;;;;;;5096077;28;20172;-68
2024/01/09 10:02:03;;;;;;;4.07;3.30;;;0.60;99.90;;;;;;4994291;28;20176;-68
2024/01/09 10:04:44;;;;;;;3.87;2.90;;;0.70;99.90;;;;;;5115167;27;20206;-67
2024/01/09 10:07:11;;;;;;;4.77;2.90;;;0.80;99.90;;;;;;4975521;28;20176;-69
2024/01/09 10:09:46;;;;;;;4.03;3.00;;;0.90;99.90;;;;;;5087821;28;20175;-67
2024/01/09 10:12:12;;;;;;;4.57;3.20;;;1.00;99.90;;;;;;5013502;28;20273;-67
2024/01/09 10:14:38;;;;;;;4.30;3.17;;;1.10;99.90;;;;;;5003016;28;20290;-67
2024/01/09 10:17:06;;;;;;;5.77;3.50;;;1.20;99.90;;;;;;4994047;28;20453;-68
2024/01/09 10:19:31;;;;;;;3.73;3.00;;;1.30;99.90;;;;;;4993524;28;20223;-68
2024/01/09 10:21:57;;;;;;;5.17;3.03;;;1.40;99.90;;;;;;4994101;28;20191;-67
2024/01/09 10:24:23;;;;;;;4.17;2.97;;;1.40;99.90;;;;;;5000044;28;20170;-67
2024/01/09 10:26:57;;;;;;;4.77;3.33;;;1.50;99.90;;;;;;5104941;27;20298;-64
2024/01/09 10:29:25;;;;;;;4.10;3.17;;;1.70;99.90;;;;;;5096359;28;20174;-67
2024/01/09 10:31:50;;;;;;;3.83;2.90;;;1.80;99.90;;;;;;5095456;28;20176;-68
2024/01/09 10:34:16;;;;;;;5.13;3.00;;;1.80;99.90;;;;;;4983104;28;20192;-67
2024/01/09 10:36:41;;;;;;;4.83;3.13;;;1.90;99.90;;;;;;4990295;28;20173;-67
2024/01/09 10:39:09;;;;;;;3.70;3.07;;;1.90;99.90;;;;;;4993236;28;20351;-67
2024/01/09 10:41:40;;;;;;;3.80;2.97;;;1.90;99.90;;;;;;5086046;28;20180;-66
2024/01/09 10:44:07;;;;;;;3.93;2.80;;;2.00;99.90;;;;;;4993533;28;20168;-67
2024/01/09 10:46:35;;;;;;;4.07;3.00;;;2.10;99.90;;;;;;4989457;28;20204;-68
2024/01/09 10:49:03;;;;;;;3.60;2.90;;;2.10;99.90;;;;;;5081387;28;20316;-66
2024/01/09 10:51:33;;;;;;;3.73;2.80;;;2.20;99.90;;;;;;4990666;28;20194;-67
2024/01/09 10:54:01;;;;;;;3.97;2.83;;;2.30;99.90;;;;;;5095868;28;20200;-67
2024/01/09 10:56:29;;;;;;;3.40;2.70;;;2.30;99.90;;;;;;5078345;28;20177;-68
2024/01/09 10:58:56;;;;;;;4.03;2.70;;;2.40;99.90;;;;;;5075835;28;20204;-68
2024/01/09 11:01:21;;;;;;;4.73;3.00;;;2.50;99.90;;;;;;5089440;28;20211;-68
2024/01/09 11:03:47;;;;;;;4.27;2.80;;;2.60;99.90;;;;;;5095633;28;20172;-66
2024/01/09 11:06:18;;;;;;;4.23;3.20;;;2.60;99.90;;;;;;4993457;28;20202;-66
2024/01/09 11:08:58;;;;;;;3.73;2.93;;;2.70;99.90;;;;;;4978451;28;20192;-68
2024/01/09 11:11:30;;;;;;;4.20;2.90;;;2.70;99.90;;;;;;4976123;28;20183;-67
2024/01/09 11:14:00;;;;;;;4.17;3.23;;;2.80;99.90;;;;;;4974068;28;20217;-66
2024/01/09 11:16:27;;;;;;;5.10;3.20;;;2.80;99.90;;;;;;5092593;28;20179;-67
2024/01/09 11:18:53;;;;;;;3.37;2.80;;;2.90;99.90;;;;;;4999442;28;20184;-68
2024/01/09 11:21:26;;;;;;;3.30;2.70;;;2.90;99.90;;;;;;5087324;28;20212;-68
2024/01/09 11:23:57;;;;;;;3.87;2.80;;;3.00;99.90;;;;;;4978500;28;20266;-68
2024/01/09 11:26:29;;;;;;;3.90;2.73;;;3.00;99.90;;;;;;5095444;28;20175;-68
2024/01/09 11:28:58;;;;;;;3.43;2.87;;;3.10;99.90;;;;;;5091949;27;20206;-68
2024/01/09 11:31:31;;;;;;;3.33;2.83;;;3.20;99.90;;;;;;4989350;28;20224;-67
2024/01/09 11:34:02;;;;;;;3.67;2.80;;;3.20;99.90;;;;;;4977620;28;20201;-68
2024/01/09 11:36:34;;;;;;;4.07;2.97;;;3.20;99.90;;;;;;4992825;28;20205;-67
2024/01/09 11:39:00;;;;;;;3.97;2.97;;;3.20;99.90;;;;;;5095226;28;20177;-65
2024/01/09 11:41:37;;;;;;;3.57;2.70;;;3.30;99.90;;;;;;4992896;28;20179;-67
2024/01/09 11:44:11;;;;;;;3.67;2.83;;;3.40;99.90;;;;;;5088011;28;20194;-66
2024/01/09 11:46:38;;;;;;;4.17;2.73;;;3.60;99.90;;;;;;4973868;28;20199;-67
2024/01/09 11:49:05;;;;;;;6.17;3.40;;;4.00;99.90;;;;;;4972973;28;20200;-67
2024/01/09 11:51:34;;;;;;;3.80;2.77;;;4.20;99.90;;;;;;5023436;28;20183;-67
2024/01/09 11:54:01;;;;;;;4.07;2.80;;;4.50;99.90;;;;;;5094725;28;20184;-68
2024/01/09 11:56:27;;;;;;;3.70;2.67;;;4.80;99.90;;;;;;4992657;28;20232;-69
2024/01/09 11:58:57;;;;;;;4.07;3.00;;;5.10;99.90;;;;;;4977902;28;20176;-70
2024/01/09 12:01:23;;;;;;;3.47;2.63;;;5.30;99.90;;;;;;5074542;28;20255;-68
2024/01/09 12:04:00;;;;;;;3.77;2.90;;;5.60;99.90;;;;;;4976086;28;20187;-69
2024/01/09 12:06:29;;;;;;;4.90;2.80;;;5.70;99.90;;;;;;5094453;28;20178;-70
2024/01/09 12:08:59;;;;;;;3.50;2.67;;;5.90;99.90;;;;;;5082394;28;20367;-67
2024/01/09 12:11:27;;;;;;;3.80;2.60;;;6.00;99.90;;;;;;4977922;28;20194;-67
2024/01/09 12:14:00;;;;;;;4.40;2.97;;;6.00;99.90;;;;;;4992308;28;20175;-67
2024/01/09 12:16:29;;;;;;;4.20;2.90;;;6.10;99.90;;;;;;4992293;28;20231;-66
2024/01/09 12:18:56;;;;;;;4.20;2.77;;;6.20;99.90;;;;;;4992227;28;20171;-68
2024/01/09 12:21:34;;;;;;;4.03;2.73;;;6.30;99.90;;;;;;4991314;28;20175;-67
2024/01/09 12:24:02;;;;;;;3.90;2.90;;;6.40;99.90;;;;;;5074503;28;20203;-67
2024/01/09 12:26:29;;;;;;;3.13;2.60;;;6.50;99.90;;;;;;5091433;28;20180;-67
2024/01/09 12:29:02;;;;;;;4.13;2.70;;;6.60;99.90;;;;;;5093889;28;20182;-68
2024/01/09 12:31:30;;;;;;;3.87;2.90;;;6.80;99.90;;;;;;5111090;28;20219;-66
2024/01/09 12:33:58;;;;;;;3.90;2.50;;;6.70;99.90;;;;;;5087524;28;20288;-66
2024/01/09 12:36:28;;;;;;;3.63;2.70;;;6.80;99.90;;;;;;5019055;28;20261;-68
2024/01/09 12:38:54;;;;;;;3.50;2.60;;;6.80;99.90;;;;;;5084501;28;20191;-67
2024/01/09 12:41:23;;;;;;;3.73;2.73;;;6.80;99.90;;;;;;4991731;28;20232;-65
2024/01/09 12:43:52;;;;;;;2.87;2.40;;;6.80;99.90;;;;;;5073999;28;20180;-67
2024/01/09 12:46:21;;;;;;;3.30;2.70;;;6.80;99.90;;;;;;4986232;28;20203;-67
2024/01/09 12:48:52;;;;;;;3.77;2.97;;;6.80;99.90;;;;;;5093849;28;20179;-67